Terminal Aerodrome Forecast
Issued by NWS

Home | Current Version | Previous Version | Text Only | Print | Product List | Glossary On
Versions: 1 2 3 4 5 6 7 8 9 10 11 12 13 14 15
000
FTUS46 KHNX 291728
TAFBFL
TAF
KBFL 291728Z 2918/3018 00000KT 1 1/2SM BR SCT015 OVC150
     FM292000 29005KT 4SM HZ FEW020 OVC150
     FM300600 VRB03KT 2SM BR BKN007 BKN150=

USA.gov is the U.S. government's official web portal to all federal, state and local government web resources and services.